sensor_id;sensor_type;location;lat;lon;timestamp;P1;durP1;ratioP1;P2;durP2;ratioP2
21758;SDS011;11041;50.854;20.580;2023-04-23T00:01:46;33.50;;;21.13;;
21758;SDS011;11041;50.854;20.580;2023-04-23T00:04:13;30.30;;;20.05;;
21758;SDS011;11041;50.854;20.580;2023-04-23T00:06:45;35.67;;;20.48;;
21758;SDS011;11041;50.854;20.580;2023-04-23T00:09:13;33.42;;;20.65;;
21758;SDS011;11041;50.854;20.580;2023-04-23T00:11:43;32.83;;;21.55;;
21758;SDS011;11041;50.854;20.580;2023-04-23T00:14:10;34.90;;;20.90;;
21758;SDS011;11041;50.854;20.580;2023-04-23T00:16:38;37.05;;;21.55;;
21758;SDS011;11041;50.854;20.580;2023-04-23T00:19:05;35.95;;;21.73;;
21758;SDS011;11041;50.854;20.580;2023-04-23T00:21:31;35.72;;;20.95;;
21758;SDS011;11041;50.854;20.580;2023-04-23T00:23:58;34.97;;;20.95;;
21758;SDS011;11041;50.854;20.580;2023-04-23T00:26:24;36.00;;;22.52;;
21758;SDS011;11041;50.854;20.580;2023-04-23T00:28:51;37.15;;;21.75;;
21758;SDS011;11041;50.854;20.580;2023-04-23T00:31:17;41.58;;;22.23;;
21758;SDS011;11041;50.854;20.580;2023-04-23T00:33:43;36.83;;;21.90;;
21758;SDS011;11041;50.854;20.580;2023-04-23T00:36:09;38.88;;;21.90;;
21758;SDS011;11041;50.854;20.580;2023-04-23T00:38:36;39.53;;;23.23;;
21758;SDS011;11041;50.854;20.580;2023-04-23T00:41:02;33.65;;;22.00;;
21758;SDS011;11041;50.854;20.580;2023-04-23T00:43:29;37.00;;;22.75;;
21758;SDS011;11041;50.854;20.580;2023-04-23T00:45:56;35.90;;;21.55;;
21758;SDS011;11041;50.854;20.580;2023-04-23T00:48:23;31.92;;;20.20;;
21758;SDS011;11041;50.854;20.580;2023-04-23T00:50:56;35.03;;;20.65;;
21758;SDS011;11041;50.854;20.580;2023-04-23T00:53:32;33.88;;;20.48;;
21758;SDS011;11041;50.854;20.580;2023-04-23T00:55:59;30.85;;;19.63;;
21758;SDS011;11041;50.854;20.580;2023-04-23T00:58:30;34.00;;;20.92;;
21758;SDS011;11041;50.854;20.580;2023-04-23T01:00:57;36.78;;;21.92;;
21758;SDS011;11041;50.854;20.580;2023-04-23T01:03:25;36.95;;;20.40;;
21758;SDS011;11041;50.854;20.580;2023-04-23T01:05:54;31.65;;;20.48;;
21758;SDS011;11041;50.854;20.580;2023-04-23T01:08:21;35.10;;;20.30;;
21758;SDS011;11041;50.854;20.580;2023-04-23T01:10:50;31.05;;;20.15;;
21758;SDS011;11041;50.854;20.580;2023-04-23T01:13:19;33.65;;;20.25;;
21758;SDS011;11041;50.854;20.580;2023-04-23T01:15:46;35.40;;;21.88;;
21758;SDS011;11041;50.854;20.580;2023-04-23T01:18:13;35.38;;;20.38;;
21758;SDS011;11041;50.854;20.580;2023-04-23T01:20:39;32.00;;;19.55;;
21758;SDS011;11041;50.854;20.580;2023-04-23T01:23:07;28.35;;;18.27;;
21758;SDS011;11041;50.854;20.580;2023-04-23T01:25:34;33.63;;;19.60;;
21758;SDS011;11041;50.854;20.580;2023-04-23T01:28:00;30.17;;;18.20;;
21758;SDS011;11041;50.854;20.580;2023-04-23T01:30:27;33.08;;;18.92;;
21758;SDS011;11041;50.854;20.580;2023-04-23T01:32:55;25.70;;;17.10;;
21758;SDS011;11041;50.854;20.580;2023-04-23T01:35:23;28.33;;;17.30;;
21758;SDS011;11041;50.854;20.580;2023-04-23T01:37:50;27.58;;;17.92;;
21758;SDS011;11041;50.854;20.580;2023-04-23T01:40:19;27.70;;;17.38;;
21758;SDS011;11041;50.854;20.580;2023-04-23T01:42:46;28.75;;;18.58;;
21758;SDS011;11041;50.854;20.580;2023-04-23T01:45:15;27.08;;;18.17;;
21758;SDS011;11041;50.854;20.580;2023-04-23T01:47:45;29.60;;;17.00;;
21758;SDS011;11041;50.854;20.580;2023-04-23T01:50:14;26.90;;;17.75;;
21758;SDS011;11041;50.854;20.580;2023-04-23T01:52:41;29.92;;;19.10;;
21758;SDS011;11041;50.854;20.580;2023-04-23T01:55:09;28.02;;;18.08;;
21758;SDS011;11041;50.854;20.580;2023-04-23T01:57:36;28.05;;;17.52;;
21758;SDS011;11041;50.854;20.580;2023-04-23T02:00:03;29.45;;;17.55;;
21758;SDS011;11041;50.854;20.580;2023-04-23T02:02:36;29.20;;;18.13;;
21758;SDS011;11041;50.854;20.580;2023-04-23T02:05:07;29.38;;;18.45;;
21758;SDS011;11041;50.854;20.580;2023-04-23T02:07:38;30.02;;;18.40;;
21758;SDS011;11041;50.854;20.580;2023-04-23T02:10:05;27.35;;;18.35;;
21758;SDS011;11041;50.854;20.580;2023-04-23T02:12:33;31.90;;;17.98;;
21758;SDS011;11041;50.854;20.580;2023-04-23T02:15:00;29.83;;;17.23;;
21758;SDS011;11041;50.854;20.580;2023-04-23T02:17:27;29.23;;;17.30;;
21758;SDS011;11041;50.854;20.580;2023-04-23T02:19:53;29.90;;;18.08;;
21758;SDS011;11041;50.854;20.580;2023-04-23T02:22:20;27.42;;;17.20;;
21758;SDS011;11041;50.854;20.580;2023-04-23T02:24:50;28.50;;;17.33;;
21758;SDS011;11041;50.854;20.580;2023-04-23T02:27:18;23.38;;;16.58;;
21758;SDS011;11041;50.854;20.580;2023-04-23T02:29:45;33.03;;;17.30;;
21758;SDS011;11041;50.854;20.580;2023-04-23T02:32:13;26.85;;;16.42;;
21758;SDS011;11041;50.854;20.580;2023-04-23T02:34:40;30.40;;;18.25;;
21758;SDS011;11041;50.854;20.580;2023-04-23T02:37:06;25.42;;;16.15;;
21758;SDS011;11041;50.854;20.580;2023-04-23T02:39:33;30.05;;;17.65;;
21758;SDS011;11041;50.854;20.580;2023-04-23T02:41:59;26.13;;;16.05;;
21758;SDS011;11041;50.854;20.580;2023-04-23T02:44:26;27.55;;;15.57;;
21758;SDS011;11041;50.854;20.580;2023-04-23T02:46:52;24.70;;;16.33;;
21758;SDS011;11041;50.854;20.580;2023-04-23T02:49:19;24.42;;;16.55;;
21758;SDS011;11041;50.854;20.580;2023-04-23T02:51:45;29.05;;;16.83;;
21758;SDS011;11041;50.854;20.580;2023-04-23T02:54:12;29.73;;;17.20;;
21758;SDS011;11041;50.854;20.580;2023-04-23T02:56:39;29.17;;;19.38;;
21758;SDS011;11041;50.854;20.580;2023-04-23T02:59:07;29.20;;;18.42;;
21758;SDS011;11041;50.854;20.580;2023-04-23T03:01:34;32.67;;;18.98;;
21758;SDS011;11041;50.854;20.580;2023-04-23T03:04:01;28.70;;;17.73;;
21758;SDS011;11041;50.854;20.580;2023-04-23T03:06:28;28.25;;;17.23;;
21758;SDS011;11041;50.854;20.580;2023-04-23T03:08:56;25.80;;;17.10;;
21758;SDS011;11041;50.854;20.580;2023-04-23T03:11:22;24.17;;;16.13;;
21758;SDS011;11041;50.854;20.580;2023-04-23T03:13:49;24.50;;;16.45;;
21758;SDS011;11041;50.854;20.580;2023-04-23T03:16:15;25.02;;;16.75;;
21758;SDS011;11041;50.854;20.580;2023-04-23T03:18:42;31.17;;;18.00;;
21758;SDS011;11041;50.854;20.580;2023-04-23T03:21:08;31.98;;;19.30;;
21758;SDS011;11041;50.854;20.580;2023-04-23T03:23:35;24.83;;;16.05;;
21758;SDS011;11041;50.854;20.580;2023-04-23T03:26:01;25.05;;;16.17;;
21758;SDS011;11041;50.854;20.580;2023-04-23T03:28:29;31.88;;;17.85;;
21758;SDS011;11041;50.854;20.580;2023-04-23T03:30:56;26.88;;;15.95;;
21758;SDS011;11041;50.854;20.580;2023-04-23T03:33:22;22.48;;;15.48;;
21758;SDS011;11041;50.854;20.580;2023-04-23T03:35:49;24.17;;;15.88;;
21758;SDS011;11041;50.854;20.580;2023-04-23T03:38:15;23.65;;;15.10;;
21758;SDS011;11041;50.854;20.580;2023-04-23T03:40:41;23.98;;;14.82;;
21758;SDS011;11041;50.854;20.580;2023-04-23T03:43:09;27.23;;;15.15;;
21758;SDS011;11041;50.854;20.580;2023-04-23T03:45:36;24.40;;;15.13;;
21758;SDS011;11041;50.854;20.580;2023-04-23T03:48:02;26.20;;;15.90;;
21758;SDS011;11041;50.854;20.580;2023-04-23T03:50:29;28.17;;;16.33;;
21758;SDS011;11041;50.854;20.580;2023-04-23T03:52:59;24.20;;;15.20;;
21758;SDS011;11041;50.854;20.580;2023-04-23T03:55:26;25.60;;;15.23;;
21758;SDS011;11041;50.854;20.580;2023-04-23T03:57:52;26.00;;;15.23;;
21758;SDS011;11041;50.854;20.580;2023-04-23T04:00:19;22.65;;;15.38;;
21758;SDS011;11041;50.854;20.580;2023-04-23T04:02:46;23.20;;;14.57;;
21758;SDS011;11041;50.854;20.580;2023-04-23T04:05:12;26.65;;;15.45;;
21758;SDS011;11041;50.854;20.580;2023-04-23T04:07:39;26.83;;;15.45;;
21758;SDS011;11041;50.854;20.580;2023-04-23T04:10:06;24.73;;;15.88;;
21758;SDS011;11041;50.854;20.580;2023-04-23T04:12:33;25.80;;;15.57;;
21758;SDS011;11041;50.854;20.580;2023-04-23T04:14:59;22.90;;;15.23;;
21758;SDS011;11041;50.854;20.580;2023-04-23T04:17:27;23.02;;;15.35;;
21758;SDS011;11041;50.854;20.580;2023-04-23T04:19:54;26.00;;;15.43;;
21758;SDS011;11041;50.854;20.580;2023-04-23T04:22:20;22.20;;;15.35;;
21758;SDS011;11041;50.854;20.580;2023-04-23T04:24:47;26.35;;;15.30;;
21758;SDS011;11041;50.854;20.580;2023-04-23T04:27:16;24.02;;;15.05;;
21758;SDS011;11041;50.854;20.580;2023-04-23T04:29:43;30.13;;;14.90;;
21758;SDS011;11041;50.854;20.580;2023-04-23T04:32:10;30.60;;;15.52;;
21758;SDS011;11041;50.854;20.580;2023-04-23T04:34:38;31.10;;;13.93;;
21758;SDS011;11041;50.854;20.580;2023-04-23T04:37:04;28.02;;;14.63;;
21758;SDS011;11041;50.854;20.580;2023-04-23T04:39:31;25.55;;;13.90;;
21758;SDS011;11041;50.854;20.580;2023-04-23T04:41:57;23.85;;;13.70;;
21758;SDS011;11041;50.854;20.580;2023-04-23T04:44:24;22.33;;;13.20;;
21758;SDS011;11041;50.854;20.580;2023-04-23T04:46:51;22.13;;;13.35;;
21758;SDS011;11041;50.854;20.580;2023-04-23T04:49:18;26.05;;;14.88;;
21758;SDS011;11041;50.854;20.580;2023-04-23T04:51:46;24.77;;;13.93;;
21758;SDS011;11041;50.854;20.580;2023-04-23T04:54:13;18.75;;;12.45;;
21758;SDS011;11041;50.854;20.580;2023-04-23T04:56:39;20.73;;;12.55;;
21758;SDS011;11041;50.854;20.580;2023-04-23T04:59:06;21.02;;;12.98;;
21758;SDS011;11041;50.854;20.580;2023-04-23T05:01:32;20.90;;;11.88;;
21758;SDS011;11041;50.854;20.580;2023-04-23T05:03:59;16.73;;;11.68;;
21758;SDS011;11041;50.854;20.580;2023-04-23T05:06:25;20.48;;;12.80;;
21758;SDS011;11041;50.854;20.580;2023-04-23T05:08:53;17.30;;;12.38;;
21758;SDS011;11041;50.854;20.580;2023-04-23T05:11:20;16.00;;;11.05;;
21758;SDS011;11041;50.854;20.580;2023-04-23T05:13:46;18.65;;;10.98;;
21758;SDS011;11041;50.854;20.580;2023-04-23T05:16:13;18.20;;;10.10;;
21758;SDS011;11041;50.854;20.580;2023-04-23T05:18:41;16.98;;;11.07;;
21758;SDS011;11041;50.854;20.580;2023-04-23T05:21:07;18.15;;;10.68;;
21758;SDS011;11041;50.854;20.580;2023-04-23T05:23:35;14.82;;;10.57;;
21758;SDS011;11041;50.854;20.580;2023-04-23T05:26:02;17.77;;;10.23;;
21758;SDS011;11041;50.854;20.580;2023-04-23T05:28:29;16.27;;;10.48;;
21758;SDS011;11041;50.854;20.580;2023-04-23T05:30:56;15.57;;;9.57;;
21758;SDS011;11041;50.854;20.580;2023-04-23T05:33:23;15.85;;;10.02;;
21758;SDS011;11041;50.854;20.580;2023-04-23T05:35:50;16.00;;;10.15;;
21758;SDS011;11041;50.854;20.580;2023-04-23T05:38:17;16.90;;;9.60;;
21758;SDS011;11041;50.854;20.580;2023-04-23T05:40:43;17.48;;;9.48;;
21758;SDS011;11041;50.854;20.580;2023-04-23T05:43:11;12.82;;;8.57;;
21758;SDS011;11041;50.854;20.580;2023-04-23T05:45:37;12.55;;;8.85;;
21758;SDS011;11041;50.854;20.580;2023-04-23T05:48:04;10.30;;;6.72;;
21758;SDS011;11041;50.854;20.580;2023-04-23T05:50:30;9.48;;;6.32;;
21758;SDS011;11041;50.854;20.580;2023-04-23T05:52:57;10.18;;;5.75;;
21758;SDS011;11041;50.854;20.580;2023-04-23T05:55:23;9.32;;;6.40;;
21758;SDS011;11041;50.854;20.580;2023-04-23T05:57:50;7.45;;;5.90;;
21758;SDS011;11041;50.854;20.580;2023-04-23T06:00:17;8.15;;;6.03;;
21758;SDS011;11041;50.854;20.580;2023-04-23T06:02:44;9.35;;;6.13;;
21758;SDS011;11041;50.854;20.580;2023-04-23T06:05:10;7.10;;;5.57;;
21758;SDS011;11041;50.854;20.580;2023-04-23T06:07:37;9.95;;;6.15;;
21758;SDS011;11041;50.854;20.580;2023-04-23T06:10:06;9.30;;;6.05;;
21758;SDS011;11041;50.854;20.580;2023-04-23T06:12:33;8.63;;;6.60;;
21758;SDS011;11041;50.854;20.580;2023-04-23T06:15:05;9.80;;;5.90;;
21758;SDS011;11041;50.854;20.580;2023-04-23T06:17:34;8.70;;;5.95;;
21758;SDS011;11041;50.854;20.580;2023-04-23T06:20:01;9.65;;;5.70;;
21758;SDS011;11041;50.854;20.580;2023-04-23T06:22:29;7.82;;;6.20;;
21758;SDS011;11041;50.854;20.580;2023-04-23T06:24:57;8.18;;;6.68;;
21758;SDS011;11041;50.854;20.580;2023-04-23T06:27:23;12.77;;;6.85;;
21758;SDS011;11041;50.854;20.580;2023-04-23T06:29:51;9.30;;;5.90;;
21758;SDS011;11041;50.854;20.580;2023-04-23T06:32:18;8.27;;;6.10;;
21758;SDS011;11041;50.854;20.580;2023-04-23T06:34:45;8.93;;;6.45;;
21758;SDS011;11041;50.854;20.580;2023-04-23T06:37:11;11.23;;;7.13;;
21758;SDS011;11041;50.854;20.580;2023-04-23T06:39:38;7.63;;;5.80;;
21758;SDS011;11041;50.854;20.580;2023-04-23T06:42:04;7.35;;;6.15;;
21758;SDS011;11041;50.854;20.580;2023-04-23T06:44:31;11.18;;;6.28;;
21758;SDS011;11041;50.854;20.580;2023-04-23T06:46:58;10.50;;;6.40;;
21758;SDS011;11041;50.854;20.580;2023-04-23T06:49:24;9.48;;;6.38;;
21758;SDS011;11041;50.854;20.580;2023-04-23T06:51:50;9.60;;;5.95;;
21758;SDS011;11041;50.854;20.580;2023-04-23T06:54:17;10.05;;;6.03;;
21758;SDS011;11041;50.854;20.580;2023-04-23T06:56:43;12.02;;;6.20;;
21758;SDS011;11041;50.854;20.580;2023-04-23T06:59:10;7.18;;;6.45;;
21758;SDS011;11041;50.854;20.580;2023-04-23T07:01:36;9.65;;;6.20;;
21758;SDS011;11041;50.854;20.580;2023-04-23T07:04:03;9.98;;;5.90;;
21758;SDS011;11041;50.854;20.580;2023-04-23T07:06:30;9.70;;;6.20;;
21758;SDS011;11041;50.854;20.580;2023-04-23T07:08:58;11.50;;;8.23;;
21758;SDS011;11041;50.854;20.580;2023-04-23T07:11:25;7.57;;;5.95;;
21758;SDS011;11041;50.854;20.580;2023-04-23T07:13:54;9.93;;;6.95;;
21758;SDS011;11041;50.854;20.580;2023-04-23T07:16:20;7.43;;;5.97;;
21758;SDS011;11041;50.854;20.580;2023-04-23T07:18:48;10.32;;;5.88;;
21758;SDS011;11041;50.854;20.580;2023-04-23T07:21:15;6.35;;;5.30;;
21758;SDS011;11041;50.854;20.580;2023-04-23T07:23:42;8.35;;;6.05;;
21758;SDS011;11041;50.854;20.580;2023-04-23T07:26:08;7.63;;;5.55;;
21758;SDS011;11041;50.854;20.580;2023-04-23T07:28:35;6.82;;;5.05;;
21758;SDS011;11041;50.854;20.580;2023-04-23T07:31:01;7.90;;;5.78;;
21758;SDS011;11041;50.854;20.580;2023-04-23T07:33:28;9.70;;;5.50;;
21758;SDS011;11041;50.854;20.580;2023-04-23T07:35:55;8.73;;;5.95;;
21758;SDS011;11041;50.854;20.580;2023-04-23T07:38:22;9.85;;;5.93;;
21758;SDS011;11041;50.854;20.580;2023-04-23T07:40:48;9.00;;;6.10;;
21758;SDS011;11041;50.854;20.580;2023-04-23T07:43:15;10.25;;;6.00;;
21758;SDS011;11041;50.854;20.580;2023-04-23T07:45:41;9.05;;;6.70;;
21758;SDS011;11041;50.854;20.580;2023-04-23T07:48:08;10.27;;;6.30;;
21758;SDS011;11041;50.854;20.580;2023-04-23T07:50:35;10.68;;;6.35;;
21758;SDS011;11041;50.854;20.580;2023-04-23T07:53:01;6.90;;;5.13;;
21758;SDS011;11041;50.854;20.580;2023-04-23T07:55:28;7.85;;;6.07;;
21758;SDS011;11041;50.854;20.580;2023-04-23T07:57:54;8.60;;;5.63;;
21758;SDS011;11041;50.854;20.580;2023-04-23T08:00:21;11.32;;;6.18;;
21758;SDS011;11041;50.854;20.580;2023-04-23T08:02:48;6.95;;;5.80;;
21758;SDS011;11041;50.854;20.580;2023-04-23T08:05:16;8.00;;;4.93;;
21758;SDS011;11041;50.854;20.580;2023-04-23T08:07:42;8.05;;;5.68;;
21758;SDS011;11041;50.854;20.580;2023-04-23T08:10:09;5.97;;;5.18;;
21758;SDS011;11041;50.854;20.580;2023-04-23T08:12:35;6.82;;;4.63;;
21758;SDS011;11041;50.854;20.580;2023-04-23T08:15:02;5.93;;;4.90;;
21758;SDS011;11041;50.854;20.580;2023-04-23T08:17:29;7.95;;;4.55;;
21758;SDS011;11041;50.854;20.580;2023-04-23T08:19:56;7.93;;;4.97;;
21758;SDS011;11041;50.854;20.580;2023-04-23T08:22:23;6.13;;;4.93;;
21758;SDS011;11041;50.854;20.580;2023-04-23T08:24:50;6.43;;;4.75;;
21758;SDS011;11041;50.854;20.580;2023-04-23T08:27:16;6.13;;;4.60;;
21758;SDS011;11041;50.854;20.580;2023-04-23T08:29:43;5.45;;;4.30;;
21758;SDS011;11041;50.854;20.580;2023-04-23T08:32:09;7.38;;;4.70;;
21758;SDS011;11041;50.854;20.580;2023-04-23T08:34:36;7.13;;;5.05;;
21758;SDS011;11041;50.854;20.580;2023-04-23T08:37:02;6.13;;;4.93;;
21758;SDS011;11041;50.854;20.580;2023-04-23T08:39:29;5.85;;;5.00;;
21758;SDS011;11041;50.854;20.580;2023-04-23T08:41:57;6.97;;;4.80;;
21758;SDS011;11041;50.854;20.580;2023-04-23T08:44:43;7.95;;;4.15;;
21758;SDS011;11041;50.854;20.580;2023-04-23T08:47:11;7.20;;;5.65;;
21758;SDS011;11041;50.854;20.580;2023-04-23T08:49:44;6.25;;;4.85;;
21758;SDS011;11041;50.854;20.580;2023-04-23T08:52:16;5.80;;;4.57;;
21758;SDS011;11041;50.854;20.580;2023-04-23T08:54:49;7.72;;;4.75;;
21758;SDS011;11041;50.854;20.580;2023-04-23T08:57:19;10.68;;;5.30;;
21758;SDS011;11041;50.854;20.580;2023-04-23T08:59:47;8.85;;;4.85;;
21758;SDS011;11041;50.854;20.580;2023-04-23T09:02:15;7.60;;;5.60;;
21758;SDS011;11041;50.854;20.580;2023-04-23T09:04:45;6.35;;;5.05;;
21758;SDS011;11041;50.854;20.580;2023-04-23T09:07:13;10.25;;;4.57;;
21758;SDS011;11041;50.854;20.580;2023-04-23T09:09:40;6.15;;;4.72;;
21758;SDS011;11041;50.854;20.580;2023-04-23T09:12:07;5.72;;;4.95;;
21758;SDS011;11041;50.854;20.580;2023-04-23T09:14:34;7.15;;;4.80;;
21758;SDS011;11041;50.854;20.580;2023-04-23T09:17:02;7.40;;;4.65;;
21758;SDS011;11041;50.854;20.580;2023-04-23T09:19:29;9.75;;;5.07;;
21758;SDS011;11041;50.854;20.580;2023-04-23T09:21:56;7.68;;;5.28;;
21758;SDS011;11041;50.854;20.580;2023-04-23T09:24:26;5.88;;;5.22;;
21758;SDS011;11041;50.854;20.580;2023-04-23T09:26:53;7.07;;;5.05;;
21758;SDS011;11041;50.854;20.580;2023-04-23T09:29:20;7.75;;;4.55;;
21758;SDS011;11041;50.854;20.580;2023-04-23T09:31:52;5.50;;;4.82;;
21758;SDS011;11041;50.854;20.580;2023-04-23T09:34:21;6.28;;;5.00;;
21758;SDS011;11041;50.854;20.580;2023-04-23T09:36:51;7.90;;;4.90;;
21758;SDS011;11041;50.854;20.580;2023-04-23T09:39:22;6.70;;;5.07;;
21758;SDS011;11041;50.854;20.580;2023-04-23T09:41:52;6.50;;;4.93;;
21758;SDS011;11041;50.854;20.580;2023-04-23T09:44:19;8.70;;;4.93;;
21758;SDS011;11041;50.854;20.580;2023-04-23T09:46:47;9.35;;;4.93;;
21758;SDS011;11041;50.854;20.580;2023-04-23T09:49:14;7.10;;;5.32;;
21758;SDS011;11041;50.854;20.580;2023-04-23T09:51:44;6.18;;;5.30;;
21758;SDS011;11041;50.854;20.580;2023-04-23T09:54:15;5.63;;;4.70;;
21758;SDS011;11041;50.854;20.580;2023-04-23T09:56:51;6.15;;;5.55;;
21758;SDS011;11041;50.854;20.580;2023-04-23T09:59:24;5.03;;;4.07;;
21758;SDS011;11041;50.854;20.580;2023-04-23T10:01:53;5.60;;;4.60;;
21758;SDS011;11041;50.854;20.580;2023-04-23T10:04:21;6.68;;;4.68;;
21758;SDS011;11041;50.854;20.580;2023-04-23T10:06:59;7.00;;;4.90;;
21758;SDS011;11041;50.854;20.580;2023-04-23T10:09:29;7.15;;;5.13;;
21758;SDS011;11041;50.854;20.580;2023-04-23T10:11:56;5.97;;;4.97;;
21758;SDS011;11041;50.854;20.580;2023-04-23T10:14:27;10.55;;;4.97;;
21758;SDS011;11041;50.854;20.580;2023-04-23T10:16:58;5.85;;;5.25;;
21758;SDS011;11041;50.854;20.580;2023-04-23T10:19:27;6.80;;;5.05;;
21758;SDS011;11041;50.854;20.580;2023-04-23T10:21:55;12.05;;;5.20;;
21758;SDS011;11041;50.854;20.580;2023-04-23T10:24:34;5.82;;;5.18;;
21758;SDS011;11041;50.854;20.580;2023-04-23T10:27:09;6.78;;;4.72;;
21758;SDS011;11041;50.854;20.580;2023-04-23T10:29:40;8.05;;;5.68;;
21758;SDS011;11041;50.854;20.580;2023-04-23T10:32:08;7.00;;;5.30;;
21758;SDS011;11041;50.854;20.580;2023-04-23T10:34:35;6.47;;;5.05;;
21758;SDS011;11041;50.854;20.580;2023-04-23T10:37:02;10.00;;;5.40;;
21758;SDS011;11041;50.854;20.580;2023-04-23T10:39:33;6.00;;;5.13;;
21758;SDS011;11041;50.854;20.580;2023-04-23T10:42:03;7.55;;;5.05;;
21758;SDS011;11041;50.854;20.580;2023-04-23T10:44:31;10.60;;;5.78;;
21758;SDS011;11041;50.854;20.580;2023-04-23T10:47:02;5.68;;;5.03;;
21758;SDS011;11041;50.854;20.580;2023-04-23T10:49:31;5.97;;;5.03;;
21758;SDS011;11041;50.854;20.580;2023-04-23T10:52:02;7.07;;;4.97;;
21758;SDS011;11041;50.854;20.580;2023-04-23T10:54:41;6.93;;;5.82;;
21758;SDS011;11041;50.854;20.580;2023-04-23T10:57:31;6.32;;;5.28;;
21758;SDS011;11041;50.854;20.580;2023-04-23T11:00:24;6.68;;;5.22;;
21758;SDS011;11041;50.854;20.580;2023-04-23T11:02:53;9.70;;;5.18;;
21758;SDS011;11041;50.854;20.580;2023-04-23T11:05:21;6.18;;;5.10;;
21758;SDS011;11041;50.854;20.580;2023-04-23T11:08:05;8.07;;;5.32;;
21758;SDS011;11041;50.854;20.580;2023-04-23T11:10:32;8.80;;;5.18;;
21758;SDS011;11041;50.854;20.580;2023-04-23T11:13:22;9.10;;;5.47;;
21758;SDS011;11041;50.854;20.580;2023-04-23T11:27:08;6.50;;;5.20;;
21758;SDS011;11041;50.854;20.580;2023-04-23T11:29:42;9.50;;;4.88;;
21758;SDS011;11041;50.854;20.580;2023-04-23T11:32:11;7.35;;;4.85;;
21758;SDS011;11041;50.854;20.580;2023-04-23T11:34:41;8.30;;;5.75;;
21758;SDS011;11041;50.854;20.580;2023-04-23T11:37:10;6.30;;;5.20;;
21758;SDS011;11041;50.854;20.580;2023-04-23T11:39:40;8.50;;;4.57;;
21758;SDS011;11041;50.854;20.580;2023-04-23T11:42:12;6.63;;;4.75;;
21758;SDS011;11041;50.854;20.580;2023-04-23T11:44:40;7.90;;;4.07;;
21758;SDS011;11041;50.854;20.580;2023-04-23T11:47:10;6.57;;;4.65;;
21758;SDS011;11041;50.854;20.580;2023-04-23T11:49:39;8.75;;;4.55;;
21758;SDS011;11041;50.854;20.580;2023-04-23T11:52:08;6.10;;;4.57;;
21758;SDS011;11041;50.854;20.580;2023-04-23T11:54:36;7.07;;;4.43;;
21758;SDS011;11041;50.854;20.580;2023-04-23T11:57:06;5.32;;;4.25;;
21758;SDS011;11041;50.854;20.580;2023-04-23T11:59:34;7.28;;;4.80;;
21758;SDS011;11041;50.854;20.580;2023-04-23T12:02:01;3.03;;;2.42;;
21758;SDS011;11041;50.854;20.580;2023-04-23T12:04:28;6.28;;;4.15;;
21758;SDS011;11041;50.854;20.580;2023-04-23T12:06:56;6.95;;;4.93;;
21758;SDS011;11041;50.854;20.580;2023-04-23T12:09:25;8.48;;;4.50;;
21758;SDS011;11041;50.854;20.580;2023-04-23T12:11:54;10.82;;;5.07;;
21758;SDS011;11041;50.854;20.580;2023-04-23T12:14:26;7.63;;;5.13;;
21758;SDS011;11041;50.854;20.580;2023-04-23T12:16:55;7.15;;;5.32;;
21758;SDS011;11041;50.854;20.580;2023-04-23T12:19:32;7.65;;;4.38;;
21758;SDS011;11041;50.854;20.580;2023-04-23T12:22:00;6.07;;;5.00;;
21758;SDS011;11041;50.854;20.580;2023-04-23T12:27:19;5.38;;;4.72;;
21758;SDS011;11041;50.854;20.580;2023-04-23T12:29:47;8.63;;;5.25;;
21758;SDS011;11041;50.854;20.580;2023-04-23T12:32:23;5.15;;;4.15;;
21758;SDS011;11041;50.854;20.580;2023-04-23T12:34:53;7.07;;;5.13;;
21758;SDS011;11041;50.854;20.580;2023-04-23T12:37:25;6.20;;;5.15;;
21758;SDS011;11041;50.854;20.580;2023-04-23T12:39:56;9.75;;;5.65;;
21758;SDS011;11041;50.854;20.580;2023-04-23T12:42:24;11.35;;;5.70;;
21758;SDS011;11041;50.854;20.580;2023-04-23T12:44:50;7.10;;;4.50;;
21758;SDS011;11041;50.854;20.580;2023-04-23T12:47:17;9.55;;;4.93;;
21758;SDS011;11041;50.854;20.580;2023-04-23T12:49:47;12.30;;;5.38;;
21758;SDS011;11041;50.854;20.580;2023-04-23T12:52:17;9.18;;;5.53;;
21758;SDS011;11041;50.854;20.580;2023-04-23T12:54:43;9.20;;;5.45;;
21758;SDS011;11041;50.854;20.580;2023-04-23T12:57:10;6.60;;;5.43;;
21758;SDS011;11041;50.854;20.580;2023-04-23T12:59:38;6.00;;;4.85;;
21758;SDS011;11041;50.854;20.580;2023-04-23T13:02:05;7.43;;;5.10;;
21758;SDS011;11041;50.854;20.580;2023-04-23T13:04:32;8.18;;;5.28;;
21758;SDS011;11041;50.854;20.580;2023-04-23T13:07:01;8.93;;;5.95;;
21758;SDS011;11041;50.854;20.580;2023-04-23T13:09:28;8.65;;;6.50;;
21758;SDS011;11041;50.854;20.580;2023-04-23T13:11:54;7.45;;;5.28;;
21758;SDS011;11041;50.854;20.580;2023-04-23T13:14:21;6.22;;;5.13;;
21758;SDS011;11041;50.854;20.580;2023-04-23T13:16:47;6.55;;;5.03;;
21758;SDS011;11041;50.854;20.580;2023-04-23T13:19:15;5.97;;;4.38;;
21758;SDS011;11041;50.854;20.580;2023-04-23T13:21:42;5.75;;;4.97;;
21758;SDS011;11041;50.854;20.580;2023-04-23T13:24:11;9.15;;;5.07;;
21758;SDS011;11041;50.854;20.580;2023-04-23T13:26:37;5.60;;;4.78;;
21758;SDS011;11041;50.854;20.580;2023-04-23T13:29:04;6.47;;;4.57;;
21758;SDS011;11041;50.854;20.580;2023-04-23T13:31:30;6.60;;;4.57;;
21758;SDS011;11041;50.854;20.580;2023-04-23T13:33:57;4.68;;;4.28;;
21758;SDS011;11041;50.854;20.580;2023-04-23T13:36:25;7.38;;;5.30;;
21758;SDS011;11041;50.854;20.580;2023-04-23T13:38:52;7.85;;;4.80;;
21758;SDS011;11041;50.854;20.580;2023-04-23T13:41:18;6.32;;;4.90;;
21758;SDS011;11041;50.854;20.580;2023-04-23T13:43:45;5.68;;;5.18;;
21758;SDS011;11041;50.854;20.580;2023-04-23T13:46:11;8.02;;;4.68;;
21758;SDS011;11041;50.854;20.580;2023-04-23T13:48:38;7.95;;;4.68;;
21758;SDS011;11041;50.854;20.580;2023-04-23T13:51:05;6.75;;;5.22;;
21758;SDS011;11041;50.854;20.580;2023-04-23T13:53:31;7.20;;;4.80;;
21758;SDS011;11041;50.854;20.580;2023-04-23T13:55:58;7.45;;;4.80;;
21758;SDS011;11041;50.854;20.580;2023-04-23T13:58:24;9.95;;;4.72;;
21758;SDS011;11041;50.854;20.580;2023-04-23T14:00:51;6.38;;;4.85;;
21758;SDS011;11041;50.854;20.580;2023-04-23T14:03:18;5.30;;;4.53;;
21758;SDS011;11041;50.854;20.580;2023-04-23T14:05:45;8.55;;;5.72;;
21758;SDS011;11041;50.854;20.580;2023-04-23T14:08:14;7.18;;;5.10;;
21758;SDS011;11041;50.854;20.580;2023-04-23T14:10:41;4.45;;;4.03;;
21758;SDS011;11041;50.854;20.580;2023-04-23T14:13:08;4.82;;;4.32;;
21758;SDS011;11041;50.854;20.580;2023-04-23T14:15:35;5.55;;;4.55;;
21758;SDS011;11041;50.854;20.580;2023-04-23T14:18:02;5.55;;;5.00;;
21758;SDS011;11041;50.854;20.580;2023-04-23T14:20:29;6.28;;;4.65;;
21758;SDS011;11041;50.854;20.580;2023-04-23T14:23:00;6.78;;;4.60;;
21758;SDS011;11041;50.854;20.580;2023-04-23T14:25:39;5.50;;;4.53;;
21758;SDS011;11041;50.854;20.580;2023-04-23T14:28:28;6.13;;;4.90;;
21758;SDS011;11041;50.854;20.580;2023-04-23T14:31:01;6.00;;;4.30;;
21758;SDS011;11041;50.854;20.580;2023-04-23T14:33:29;7.20;;;5.18;;
21758;SDS011;11041;50.854;20.580;2023-04-23T14:35:55;7.63;;;5.35;;
21758;SDS011;11041;50.854;20.580;2023-04-23T14:38:23;6.45;;;4.43;;
21758;SDS011;11041;50.854;20.580;2023-04-23T14:40:51;12.02;;;5.53;;
21758;SDS011;11041;50.854;20.580;2023-04-23T14:43:18;6.40;;;4.65;;